Terminal Aerodrome Forecast
Issued by NWS Green Bay, WI

Home | Current Version | Previous Version | Graphics & Text | Print | Product List | Glossary On
Versions: 1 2 3 4 5 6 7 8 9 10 11 12 13 14 15 16 17 18 19 20 21 22 23 24 25 26 27 28 29 30 31 32 33 34 35
000
FTUS43 KGRB 250900 AAA
TAFGRB
TAF AMD
KGRB 250942Z 2510/2606 17007KT P6SM SCT025 OVC100
      TEMPO 2512/2514 1SM TSRA BKN018CB
     FM251500 19007KT 6SM BR BKN035
     FM251900 21010G16KT 6SM HZ SCT035 PROB30 2522/2601 5SM TSRA
      OVC025CB=

USA.gov is the U.S. government's official web portal to all federal, state and local government web resources and services.